Time;durP1;ratioP1;P1;durP2;ratioP2;P2;SDS_P1;SDS_P2;PMS_P1;PMS_P2;Temp;Humidity;BMP_temperature;BMP_pressure;BME280_temperature;BME280_humidity;BME280_pressure;Samples;Min_cycle;Max_cycle;Signal;HPM_P1;HPM_P2
2021/08/22 00:01:59;;;;;;;7.90;6.97;;;;;;;;;;5093285;28;20452;-79
2021/08/22 00:04:25;;;;;;;10.40;7.28;;;;;;;;;;5092530;28;20114;-79
2021/08/22 00:06:50;;;;;;;8.68;7.35;;;;;;;;;;5095613;28;20027;-78
2021/08/22 00:09:15;;;;;;;8.75;6.90;;;;;;;;;;5096994;28;20024;-79
2021/08/22 00:11:41;;;;;;;9.20;7.30;;;;;;;;;;5089649;28;20028;-79
2021/08/22 00:14:06;;;;;;;11.63;7.68;;;;;;;;;;5078010;28;20037;-79
2021/08/22 00:16:31;;;;;;;9.57;6.78;;;;;;;;;;5080306;28;20028;-79
2021/08/22 00:18:56;;;;;;;9.68;7.75;;;;;;;;;;5095218;28;20448;-78
2021/08/22 00:21:22;;;;;;;13.95;8.45;;;;;;;;;;5093297;28;20024;-79
2021/08/22 00:23:47;;;;;;;10.18;8.32;;;;;;;;;;5096806;28;20027;-79
2021/08/22 00:26:12;;;;;;;9.05;8.00;;;;;;;;;;5094327;28;20028;-80
2021/08/22 00:28:38;;;;;;;14.48;9.00;;;;;;;;;;5090585;28;20082;-80
2021/08/22 00:31:03;;;;;;;12.68;8.20;;;;;;;;;;5076052;28;20109;-79
2021/08/22 00:33:28;;;;;;;15.30;7.88;;;;;;;;;;5091873;28;20016;-79
2021/08/22 00:35:54;;;;;;;9.75;7.57;;;;;;;;;;5096718;28;20528;-78
2021/08/22 00:38:19;;;;;;;8.43;7.63;;;;;;;;;;5080505;28;20040;-80
2021/08/22 00:40:46;;;;;;;10.50;7.88;;;;;;;;;;5083577;28;20496;-80
2021/08/22 00:43:12;;;;;;;12.20;7.47;;;;;;;;;;5087088;28;20400;-79
2021/08/22 00:45:39;;;;;;;10.65;8.07;;;;;;;;;;5086136;28;20028;-79
2021/08/22 00:48:05;;;;;;;9.13;8.00;;;;;;;;;;5095616;28;20055;-79
2021/08/22 00:50:32;;;;;;;11.73;8.30;;;;;;;;;;5094210;28;20024;-79
2021/08/22 00:52:58;;;;;;;11.57;8.70;;;;;;;;;;5095617;28;20492;-79
2021/08/22 00:55:23;;;;;;;12.40;9.25;;;;;;;;;;5093857;28;20031;-79
2021/08/22 00:57:49;;;;;;;10.82;8.38;;;;;;;;;;5095886;28;20392;-79
2021/08/22 01:00:15;;;;;;;11.32;8.68;;;;;;;;;;5093750;28;20031;-79
2021/08/22 01:02:48;;;;;;;12.10;9.40;;;;;;;;;;5095950;28;20043;-79
2021/08/22 01:05:28;;;;;;;15.15;9.95;;;;;;;;;;5093864;28;20552;-79
2021/08/22 01:08:32;;;;;;;13.60;9.50;;;;;;;;;;5097292;28;20049;-79
2021/08/22 01:11:05;;;;;;;16.55;9.93;;;;;;;;;;5084270;28;20039;-79
2021/08/22 01:13:35;;;;;;;14.63;9.75;;;;;;;;;;5096941;28;20073;-79
2021/08/22 01:16:02;;;;;;;19.02;9.95;;;;;;;;;;5096283;28;20514;-78
2021/08/22 01:18:28;;;;;;;11.05;9.48;;;;;;;;;;5081385;28;20029;-80
2021/08/22 01:21:11;;;;;;;14.50;10.52;;;;;;;;;;5096899;28;20136;-80
2021/08/22 01:23:59;;;;;;;19.55;12.15;;;;;;;;;;5104963;28;20028;-80
2021/08/22 01:26:28;;;;;;;15.90;10.77;;;;;;;;;;5084769;28;20040;-80
2021/08/22 01:28:54;;;;;;;14.13;11.25;;;;;;;;;;5065709;28;20029;-79
2021/08/22 01:31:25;;;;;;;14.70;10.82;;;;;;;;;;5066346;28;20108;-80
2021/08/22 01:33:53;;;;;;;13.30;11.20;;;;;;;;;;5095834;28;20024;-79
2021/08/22 01:36:20;;;;;;;17.77;11.95;;;;;;;;;;5087691;28;20024;-79
2021/08/22 01:38:47;;;;;;;16.52;12.43;;;;;;;;;;5107198;28;20024;-79
2021/08/22 01:41:13;;;;;;;14.48;11.35;;;;;;;;;;5104259;28;20388;-80
2021/08/22 01:43:39;;;;;;;18.42;12.10;;;;;;;;;;5105569;28;20023;-80
2021/08/22 01:46:06;;;;;;;19.35;12.43;;;;;;;;;;5103703;28;20016;-79
2021/08/22 01:48:32;;;;;;;17.25;12.48;;;;;;;;;;5119268;28;20038;-78
2021/08/22 01:50:59;;;;;;;19.88;12.15;;;;;;;;;;5107897;28;20042;-78
2021/08/22 01:53:25;;;;;;;18.85;11.95;;;;;;;;;;5100406;28;20036;-78
2021/08/22 01:55:53;;;;;;;15.38;12.77;;;;;;;;;;5099720;28;20051;-79
2021/08/22 01:58:18;;;;;;;18.38;12.70;;;;;;;;;;5113098;28;20028;-79
2021/08/22 02:00:44;;;;;;;16.88;12.48;;;;;;;;;;5117591;28;20083;-79
2021/08/22 02:03:19;;;;;;;20.10;13.07;;;;;;;;;;5119913;28;20024;-79
2021/08/22 02:05:47;;;;;;;21.38;14.27;;;;;;;;;;5102719;28;20020;-79
2021/08/22 02:08:17;;;;;;;16.65;13.80;;;;;;;;;;5087597;28;20020;-80
2021/08/22 02:10:49;;;;;;;20.38;13.45;;;;;;;;;;5097975;28;20392;-80
2021/08/22 02:13:15;;;;;;;19.77;14.10;;;;;;;;;;5106851;28;20031;-80
2021/08/22 02:15:41;;;;;;;18.10;13.23;;;;;;;;;;5105897;28;20026;-80
2021/08/22 02:18:16;;;;;;;17.20;14.15;;;;;;;;;;5106154;28;20121;-80
2021/08/22 02:20:46;;;;;;;17.33;12.68;;;;;;;;;;5106016;28;20445;-80
2021/08/22 02:23:12;;;;;;;17.67;13.85;;;;;;;;;;5099399;28;20050;-80
2021/08/22 02:25:38;;;;;;;16.88;13.52;;;;;;;;;;5084523;28;20086;-80
2021/08/22 02:28:03;;;;;;;19.33;14.25;;;;;;;;;;5099223;28;20016;-79
2021/08/22 02:30:35;;;;;;;20.63;14.60;;;;;;;;;;5106878;28;20059;-79
2021/08/22 02:33:04;;;;;;;18.90;15.05;;;;;;;;;;5106026;28;20027;-80
2021/08/22 02:35:30;;;;;;;23.70;16.15;;;;;;;;;;5108044;28;20054;-79
2021/08/22 02:37:55;;;;;;;21.33;15.95;;;;;;;;;;5105038;28;20489;-80
2021/08/22 02:40:20;;;;;;;20.27;15.90;;;;;;;;;;5098867;28;20024;-80
2021/08/22 02:42:46;;;;;;;19.85;15.63;;;;;;;;;;5103233;28;20024;-80
2021/08/22 02:45:11;;;;;;;21.83;16.27;;;;;;;;;;5109589;28;20031;-80
2021/08/22 02:47:37;;;;;;;25.23;15.65;;;;;;;;;;5105854;28;20024;-79
2021/08/22 02:50:02;;;;;;;27.33;15.88;;;;;;;;;;5089682;28;20016;-80
2021/08/22 02:52:28;;;;;;;25.40;16.30;;;;;;;;;;5091188;28;20032;-79
2021/08/22 02:54:53;;;;;;;21.52;16.60;;;;;;;;;;5086278;28;20024;-80
2021/08/22 02:57:19;;;;;;;29.63;17.88;;;;;;;;;;5099330;28;20032;-80
2021/08/22 02:59:45;;;;;;;23.73;16.85;;;;;;;;;;5105017;28;20043;-80
2021/08/22 03:02:10;;;;;;;24.65;18.60;;;;;;;;;;5108039;28;20102;-80
2021/08/22 03:04:36;;;;;;;28.15;19.35;;;;;;;;;;5105269;28;20035;-80
2021/08/22 03:07:01;;;;;;;28.80;19.52;;;;;;;;;;5098399;28;20058;-80
2021/08/22 03:09:26;;;;;;;28.73;20.50;;;;;;;;;;5092199;28;20076;-80
2021/08/22 03:11:52;;;;;;;27.88;20.27;;;;;;;;;;5105312;28;20035;-80
2021/08/22 03:14:17;;;;;;;27.85;21.05;;;;;;;;;;5109333;28;20035;-80
2021/08/22 03:16:42;;;;;;;29.08;21.75;;;;;;;;;;5105476;28;20096;-80
2021/08/22 03:19:08;;;;;;;31.60;21.58;;;;;;;;;;5106968;28;20028;-80
2021/08/22 03:21:33;;;;;;;26.77;19.63;;;;;;;;;;5105221;28;20032;-80
2021/08/22 03:23:59;;;;;;;28.38;20.88;;;;;;;;;;5093028;28;20032;-80
2021/08/22 03:26:24;;;;;;;27.98;20.67;;;;;;;;;;5104251;28;20030;-79
2021/08/22 03:28:51;;;;;;;31.00;21.08;;;;;;;;;;5108137;28;20027;-79
2021/08/22 03:31:16;;;;;;;27.88;20.52;;;;;;;;;;5101413;28;20083;-79
2021/08/22 03:33:41;;;;;;;29.98;21.05;;;;;;;;;;5087044;28;20039;-79
2021/08/22 03:36:07;;;;;;;32.70;22.20;;;;;;;;;;5089012;28;20031;-79
2021/08/22 03:38:32;;;;;;;31.60;22.75;;;;;;;;;;5106800;28;20036;-79
2021/08/22 03:40:58;;;;;;;34.70;24.30;;;;;;;;;;5093422;28;20083;-79
2021/08/22 03:43:23;;;;;;;33.17;23.85;;;;;;;;;;5102720;28;20050;-79
2021/08/22 03:45:49;;;;;;;33.45;23.50;;;;;;;;;;5106001;28;20055;-79
2021/08/22 03:48:14;;;;;;;33.55;23.35;;;;;;;;;;5101692;28;20035;-80
2021/08/22 03:50:39;;;;;;;30.45;22.48;;;;;;;;;;5102538;28;20051;-79
2021/08/22 03:53:04;;;;;;;34.85;23.48;;;;;;;;;;5106179;28;20050;-80
2021/08/22 03:55:30;;;;;;;34.22;22.95;;;;;;;;;;5083809;28;20837;-79
2021/08/22 03:57:55;;;;;;;33.63;22.52;;;;;;;;;;5106247;28;20083;-78
2021/08/22 04:00:20;;;;;;;32.45;21.10;;;;;;;;;;5101639;28;20107;-79
2021/08/22 04:02:46;;;;;;;27.85;20.73;;;;;;;;;;5098400;28;20028;-79
2021/08/22 04:05:12;;;;;;;29.98;19.67;;;;;;;;;;5083819;28;20026;-79
2021/08/22 04:07:44;;;;;;;22.88;17.25;;;;;;;;;;5086331;28;20441;-79
2021/08/22 04:10:09;;;;;;;28.20;18.52;;;;;;;;;;5083766;28;20025;-79
2021/08/22 04:12:35;;;;;;;22.17;16.27;;;;;;;;;;5100022;28;20483;-79
2021/08/22 04:15:01;;;;;;;24.50;16.65;;;;;;;;;;5105132;28;20066;-80
2021/08/22 04:17:26;;;;;;;21.77;15.88;;;;;;;;;;5103735;28;20031;-79
2021/08/22 04:19:51;;;;;;;20.75;15.65;;;;;;;;;;5093061;28;20048;-79
2021/08/22 04:22:17;;;;;;;20.48;15.18;;;;;;;;;;5100052;28;20030;-81
2021/08/22 04:24:42;;;;;;;19.58;15.63;;;;;;;;;;5104562;28;20097;-79
2021/08/22 04:27:08;;;;;;;20.35;15.77;;;;;;;;;;5083610;28;20052;-81
2021/08/22 04:29:38;;;;;;;24.48;15.35;;;;;;;;;;5085675;28;20050;-79
2021/08/22 04:32:04;;;;;;;20.17;15.10;;;;;;;;;;5090512;28;20020;-79
2021/08/22 04:34:29;;;;;;;18.40;14.70;;;;;;;;;;5084782;28;20055;-79
2021/08/22 04:36:55;;;;;;;19.15;14.40;;;;;;;;;;5105413;28;20035;-80
2021/08/22 04:39:20;;;;;;;16.85;14.00;;;;;;;;;;5104744;28;20027;-79
2021/08/22 04:41:46;;;;;;;21.40;14.82;;;;;;;;;;5090923;28;20059;-80
2021/08/22 04:44:12;;;;;;;17.60;14.38;;;;;;;;;;5083842;28;20032;-80
2021/08/22 04:46:38;;;;;;;19.05;14.88;;;;;;;;;;5095326;28;20024;-79
2021/08/22 04:49:03;;;;;;;19.58;13.95;;;;;;;;;;5104681;28;20090;-79
2021/08/22 04:51:29;;;;;;;18.45;13.88;;;;;;;;;;5105301;28;20084;-78
2021/08/22 04:53:56;;;;;;;20.50;13.55;;;;;;;;;;5097472;28;20028;-80
2021/08/22 04:56:21;;;;;;;19.73;15.45;;;;;;;;;;5090433;28;20031;-79
2021/08/22 04:58:47;;;;;;;18.05;14.60;;;;;;;;;;5100746;28;20088;-79
2021/08/22 05:01:12;;;;;;;18.33;14.60;;;;;;;;;;5095273;28;20023;-78
2021/08/22 05:03:37;;;;;;;21.67;15.02;;;;;;;;;;5102585;28;20020;-79
2021/08/22 05:06:02;;;;;;;18.08;14.30;;;;;;;;;;5100121;28;20031;-78
2021/08/22 05:08:28;;;;;;;18.88;14.10;;;;;;;;;;5100843;28;20476;-78
2021/08/22 05:10:55;;;;;;;20.00;13.98;;;;;;;;;;5100441;28;20024;-79
2021/08/22 05:13:21;;;;;;;19.02;13.88;;;;;;;;;;5100060;28;20082;-79
2021/08/22 05:15:47;;;;;;;18.42;14.45;;;;;;;;;;5100992;28;20024;-79
2021/08/22 05:18:13;;;;;;;18.67;13.98;;;;;;;;;;5099111;28;20028;-79
2021/08/22 05:20:38;;;;;;;19.48;14.27;;;;;;;;;;5078243;28;20392;-77
2021/08/22 05:23:03;;;;;;;17.05;13.48;;;;;;;;;;5077130;28;20052;-78
2021/08/22 05:25:29;;;;;;;16.77;13.73;;;;;;;;;;5093610;28;20020;-77
2021/08/22 05:27:54;;;;;;;19.33;13.98;;;;;;;;;;5095986;28;20110;-77
2021/08/22 05:30:19;;;;;;;16.50;13.73;;;;;;;;;;5095589;28;20072;-77
2021/08/22 05:32:44;;;;;;;16.60;13.10;;;;;;;;;;5096788;28;20016;-77
2021/08/22 05:35:10;;;;;;;15.60;13.27;;;;;;;;;;5094044;28;20024;-78
2021/08/22 05:37:35;;;;;;;17.10;13.13;;;;;;;;;;5089974;28;20590;-78
2021/08/22 05:40:01;;;;;;;17.45;13.40;;;;;;;;;;5090924;28;20035;-78
2021/08/22 05:42:26;;;;;;;15.18;11.80;;;;;;;;;;5087278;28;20028;-78
2021/08/22 05:44:51;;;;;;;16.60;13.57;;;;;;;;;;5073095;28;20415;-78
2021/08/22 05:47:20;;;;;;;15.32;12.10;;;;;;;;;;5071789;28;20024;-78
2021/08/22 05:49:47;;;;;;;15.85;12.52;;;;;;;;;;5093282;28;20503;-79
2021/08/22 05:52:13;;;;;;;16.88;12.05;;;;;;;;;;5089445;28;20024;-79
2021/08/22 05:54:38;;;;;;;16.17;12.48;;;;;;;;;;5085949;28;20381;-79
2021/08/22 05:57:03;;;;;;;15.07;12.18;;;;;;;;;;5091420;28;20073;-78
2021/08/22 05:59:29;;;;;;;17.92;12.20;;;;;;;;;;5093174;28;20024;-77
2021/08/22 06:01:54;;;;;;;15.45;12.50;;;;;;;;;;5091788;28;20028;-79
2021/08/22 06:04:19;;;;;;;18.10;12.88;;;;;;;;;;5089441;28;20039;-78
2021/08/22 06:06:46;;;;;;;15.75;12.27;;;;;;;;;;5095776;28;20031;-76
2021/08/22 06:09:11;;;;;;;15.75;12.32;;;;;;;;;;5089752;28;20016;-78
2021/08/22 06:11:36;;;;;;;16.38;12.65;;;;;;;;;;5075705;28;20159;-77
2021/08/22 06:14:02;;;;;;;19.88;14.07;;;;;;;;;;5091060;28;20479;-79
2021/08/22 06:16:27;;;;;;;19.67;13.95;;;;;;;;;;5097891;28;20020;-79
2021/08/22 06:18:52;;;;;;;19.50;13.82;;;;;;;;;;5096064;28;20588;-78
2021/08/22 06:21:17;;;;;;;22.13;14.55;;;;;;;;;;5093856;28;20028;-79
2021/08/22 06:23:43;;;;;;;21.52;13.93;;;;;;;;;;5097698;28;20016;-79
2021/08/22 06:26:09;;;;;;;21.35;14.10;;;;;;;;;;5094503;28;20475;-79
2021/08/22 06:28:34;;;;;;;19.88;13.80;;;;;;;;;;5097830;28;20080;-79
2021/08/22 06:30:59;;;;;;;18.85;14.45;;;;;;;;;;5095734;28;20369;-79
2021/08/22 06:33:24;;;;;;;24.00;16.02;;;;;;;;;;5096303;28;20468;-80
2021/08/22 06:35:50;;;;;;;21.98;14.68;;;;;;;;;;5097667;28;20024;-77
2021/08/22 06:38:15;;;;;;;23.85;15.02;;;;;;;;;;5085538;28;20086;-79
2021/08/22 06:40:41;;;;;;;23.48;15.70;;;;;;;;;;5075645;28;20021;-78
2021/08/22 06:43:06;;;;;;;23.30;15.10;;;;;;;;;;5080836;28;20046;-79
2021/08/22 06:45:31;;;;;;;21.90;15.88;;;;;;;;;;5097353;28;20039;-78
2021/08/22 06:47:57;;;;;;;24.05;16.08;;;;;;;;;;5095176;28;20085;-79
2021/08/22 06:50:24;;;;;;;22.70;14.48;;;;;;;;;;5097371;28;20016;-79
2021/08/22 06:52:49;;;;;;;22.80;15.38;;;;;;;;;;5087283;28;20059;-79
2021/08/22 06:55:15;;;;;;;24.52;16.63;;;;;;;;;;5075849;28;20029;-79
2021/08/22 06:57:40;;;;;;;23.45;15.60;;;;;;;;;;5076093;28;20016;-78
2021/08/22 07:00:06;;;;;;;25.85;17.33;;;;;;;;;;5085727;28;20036;-79
2021/08/22 07:02:31;;;;;;;27.88;16.85;;;;;;;;;;5076415;28;20028;-79
2021/08/22 07:04:56;;;;;;;25.85;16.52;;;;;;;;;;5096583;28;20024;-78
2021/08/22 07:07:22;;;;;;;27.27;17.65;;;;;;;;;;5094055;28;20388;-79
2021/08/22 07:09:47;;;;;;;27.25;17.00;;;;;;;;;;5092857;28;20107;-79
2021/08/22 07:12:14;;;;;;;26.02;17.42;;;;;;;;;;5095568;28;20157;-79
2021/08/22 07:14:39;;;;;;;26.83;17.85;;;;;;;;;;5094391;28;20467;-78
2021/08/22 07:17:05;;;;;;;27.55;18.42;;;;;;;;;;5068998;28;20049;-78
2021/08/22 07:19:30;;;;;;;32.13;19.10;;;;;;;;;;5056057;28;20485;-78
2021/08/22 07:21:56;;;;;;;31.13;18.90;;;;;;;;;;5070227;28;20020;-78
2021/08/22 07:24:22;;;;;;;29.95;19.50;;;;;;;;;;5094847;28;20024;-79
2021/08/22 07:26:47;;;;;;;34.60;19.38;;;;;;;;;;5086703;28;20032;-78
2021/08/22 07:29:12;;;;;;;32.40;20.15;;;;;;;;;;5087946;28;20043;-78
2021/08/22 07:31:38;;;;;;;28.10;18.48;;;;;;;;;;5096763;28;20085;-78
2021/08/22 07:34:03;;;;;;;31.90;20.10;;;;;;;;;;5095180;28;20114;-80
2021/08/22 07:36:28;;;;;;;33.05;19.42;;;;;;;;;;5099155;28;20028;-80
2021/08/22 07:38:54;;;;;;;33.80;20.98;;;;;;;;;;5098304;28;20016;-80
2021/08/22 07:41:19;;;;;;;33.30;19.70;;;;;;;;;;5092753;28;20040;-80
2021/08/22 07:43:44;;;;;;;32.97;20.48;;;;;;;;;;5082192;28;20020;-78
2021/08/22 07:46:10;;;;;;;33.53;21.08;;;;;;;;;;5081599;28;20031;-80
2021/08/22 07:48:35;;;;;;;35.17;21.65;;;;;;;;;;5081478;28;20036;-80
2021/08/22 07:51:00;;;;;;;30.55;19.75;;;;;;;;;;5083143;28;20044;-80
2021/08/22 07:53:26;;;;;;;31.67;19.45;;;;;;;;;;5090304;28;20367;-80
2021/08/22 07:55:51;;;;;;;33.50;20.08;;;;;;;;;;5079884;28;20032;-79
2021/08/22 07:58:16;;;;;;;33.13;20.15;;;;;;;;;;5089555;28;20111;-80
2021/08/22 08:00:42;;;;;;;32.08;20.05;;;;;;;;;;5088064;28;20028;-80
2021/08/22 08:03:07;;;;;;;32.20;20.92;;;;;;;;;;5085414;28;20484;-80
2021/08/22 08:05:32;;;;;;;32.17;20.13;;;;;;;;;;5099568;28;20020;-81
2021/08/22 08:07:58;;;;;;;34.50;22.00;;;;;;;;;;5089472;28;20025;-80
2021/08/22 08:10:24;;;;;;;33.10;20.95;;;;;;;;;;5081249;28;20021;-79
2021/08/22 08:12:49;;;;;;;31.40;21.05;;;;;;;;;;5095517;28;20026;-81
2021/08/22 08:15:15;;;;;;;34.70;20.85;;;;;;;;;;5099470;28;20091;-80
2021/08/22 08:17:40;;;;;;;34.47;21.17;;;;;;;;;;5096177;28;20029;-80
2021/08/22 08:20:06;;;;;;;31.13;19.80;;;;;;;;;;5099306;28;20020;-80
2021/08/22 08:22:31;;;;;;;32.00;20.38;;;;;;;;;;5096775;28;20037;-79
2021/08/22 08:24:57;;;;;;;36.50;20.55;;;;;;;;;;5094100;28;20024;-80
2021/08/22 08:27:23;;;;;;;29.58;19.58;;;;;;;;;;5088409;28;20150;-79
2021/08/22 08:29:49;;;;;;;31.02;19.98;;;;;;;;;;5098621;28;20067;-80
2021/08/22 08:32:15;;;;;;;33.13;21.25;;;;;;;;;;5097228;28;20055;-80
2021/08/22 08:34:40;;;;;;;33.00;20.60;;;;;;;;;;5082985;28;20037;-80
2021/08/22 08:37:05;;;;;;;33.72;21.33;;;;;;;;;;5099860;28;20032;-79
2021/08/22 08:39:31;;;;;;;32.30;20.20;;;;;;;;;;5078848;28;20463;-80
2021/08/22 08:42:16;;;;;;;35.30;21.23;;;;;;;;;;5079035;28;20027;-80
2021/08/22 08:44:43;;;;;;;33.72;21.63;;;;;;;;;;5079298;28;20036;-79
2021/08/22 08:47:10;;;;;;;36.92;20.65;;;;;;;;;;5079837;28;20099;-80
2021/08/22 08:49:46;;;;;;;42.95;22.63;;;;;;;;;;5091018;28;20027;-80
2021/08/22 08:52:21;;;;;;;35.67;21.33;;;;;;;;;;5096654;28;20027;-81
2021/08/22 08:55:12;;;;;;;32.85;20.77;;;;;;;;;;5057441;28;20032;-79
2021/08/22 08:57:37;;;;;;;31.77;20.25;;;;;;;;;;5036826;28;20099;-80
2021/08/22 09:00:07;;;;;;;40.90;20.83;;;;;;;;;;5057957;28;20028;-80
2021/08/22 09:02:33;;;;;;;34.75;21.30;;;;;;;;;;5078323;28;20123;-80
2021/08/22 09:04:58;;;;;;;35.15;21.23;;;;;;;;;;5098013;28;20051;-80
2021/08/22 09:07:50;;;;;;;32.10;19.85;;;;;;;;;;5096338;28;20122;-80
2021/08/22 09:10:37;;;;;;;38.50;21.42;;;;;;;;;;5085608;28;20568;-80
2021/08/22 09:13:24;;;;;;;34.30;21.25;;;;;;;;;;5091488;28;20051;-79
2021/08/22 09:16:37;;;;;;;39.30;19.98;;;;;;;;;;5098013;28;20401;-80
2021/08/22 09:19:02;;;;;;;36.10;20.67;;;;;;;;;;5073638;28;20039;-79
2021/08/22 09:21:59;;;;;;;36.35;20.15;;;;;;;;;;5078518;28;20036;-80
2021/08/22 09:25:01;;;;;;;35.75;20.48;;;;;;;;;;5099137;28;20030;-80
2021/08/22 09:27:48;;;;;;;36.22;20.70;;;;;;;;;;5089207;28;20024;-79
2021/08/22 09:30:41;;;;;;;34.88;20.52;;;;;;;;;;5078107;28;20024;-80
2021/08/22 09:33:25;;;;;;;;;;;;;;;;;;5079832;28;20063;-80
2021/08/22 09:36:08;;;;;;;36.78;20.48;;;;;;;;;;5082953;28;19915;-80
2021/08/22 09:39:27;;;;;;;35.35;20.17;;;;;;;;;;5084684;28;20089;-81
2021/08/22 09:42:04;;;;;;;33.92;20.05;;;;;;;;;;5088851;28;20043;-80
2021/08/22 09:44:57;;;;;;;35.20;20.42;;;;;;;;;;5084486;28;20425;-81
2021/08/22 09:47:53;;;;;;;32.50;19.50;;;;;;;;;;5067335;28;20081;-79
2021/08/22 09:51:02;;;;;;;30.67;19.77;;;;;;;;;;5086070;28;20084;-80
2021/08/22 09:54:16;;;;;;;37.30;21.55;;;;;;;;;;5105258;28;20460;-79
2021/08/22 09:57:00;;;;;;;36.28;21.50;;;;;;;;;;5097575;28;20051;-81
2021/08/22 10:00:03;;;;;;;44.58;21.33;;;;;;;;;;5096971;28;20028;-80
2021/08/22 10:02:40;;;;;;;36.25;20.30;;;;;;;;;;5091936;28;20032;-80
2021/08/22 10:05:37;;;;;;;33.05;19.63;;;;;;;;;;5081940;28;20024;-80
2021/08/22 10:08:05;;;;;;;29.10;18.27;;;;;;;;;;5101782;28;20108;-80
2021/08/22 10:10:40;;;;;;;29.83;18.35;;;;;;;;;;5099383;28;20016;-79
2021/08/22 10:13:05;;;;;;;26.08;16.25;;;;;;;;;;5098393;28;20062;-81
2021/08/22 10:15:30;;;;;;;20.13;13.77;;;;;;;;;;5095693;28;20033;-80
2021/08/22 10:17:56;;;;;;;21.98;13.85;;;;;;;;;;5080628;28;20085;-79
2021/08/22 10:20:39;;;;;;;24.33;14.75;;;;;;;;;;5081353;28;20063;-79
2021/08/22 10:23:04;;;;;;;22.48;13.65;;;;;;;;;;5100452;28;20061;-81
2021/08/22 10:25:49;;;;;;;22.23;15.07;;;;;;;;;;5101557;28;20020;-79
2021/08/22 10:28:14;;;;;;;26.88;15.52;;;;;;;;;;5098643;28;20122;-80
2021/08/22 10:30:43;;;;;;;24.85;16.00;;;;;;;;;;5102374;28;20447;-81
2021/08/22 10:33:10;;;;;;;26.23;16.05;;;;;;;;;;5097804;28;20020;-81
2021/08/22 10:35:36;;;;;;;22.52;13.88;;;;;;;;;;5094132;28;20035;-79
2021/08/22 10:38:21;;;;;;;20.95;12.48;;;;;;;;;;5080451;28;20025;-80
2021/08/22 10:40:47;;;;;;;18.23;13.10;;;;;;;;;;5086980;28;20415;-81
2021/08/22 10:43:12;;;;;;;21.92;14.02;;;;;;;;;;5090264;28;20035;-81
2021/08/22 10:45:43;;;;;;;19.52;13.27;;;;;;;;;;5088638;28;20031;-80
2021/08/22 10:48:10;;;;;;;22.15;13.20;;;;;;;;;;5095222;28;20026;-80
2021/08/22 10:50:58;;;;;;;19.15;12.13;;;;;;;;;;5095974;28;20407;-80
2021/08/22 10:53:30;;;;;;;22.55;12.05;;;;;;;;;;5094212;28;20484;-80
2021/08/22 10:55:57;;;;;;;19.17;12.25;;;;;;;;;;5085919;28;20031;-81
2021/08/22 10:59:00;;;;;;;16.42;11.27;;;;;;;;;;5079013;28;20433;-79
2021/08/22 11:01:29;;;;;;;;;;;;;;;;;;5100760;28;20024;-81
2021/08/22 11:04:18;;;;;;;13.43;8.98;;;;;;;;;;5081673;28;19912;-80
2021/08/22 11:06:57;;;;;;;12.10;8.77;;;;;;;;;;5079833;28;20082;-79
2021/08/22 11:09:37;;;;;;;13.38;9.05;;;;;;;;;;5091950;28;20048;-81
2021/08/22 11:12:04;;;;;;;12.32;8.57;;;;;;;;;;5095508;28;20081;-80
2021/08/22 11:14:30;;;;;;;12.10;8.60;;;;;;;;;;5100300;28;20028;-81
2021/08/22 11:16:58;;;;;;;12.00;8.43;;;;;;;;;;5097852;28;20020;-80
2021/08/22 11:19:23;;;;;;;12.02;8.55;;;;;;;;;;5097447;28;20480;-81
2021/08/22 11:21:49;;;;;;;17.98;8.40;;;;;;;;;;5097924;28;20043;-80
2021/08/22 11:24:16;;;;;;;13.77;8.25;;;;;;;;;;5099734;28;20031;-80
2021/08/22 11:26:41;;;;;;;9.75;8.18;;;;;;;;;;5102952;28;20069;-80
2021/08/22 11:29:07;;;;;;;9.68;7.88;;;;;;;;;;5106834;28;20031;-79
2021/08/22 11:31:34;;;;;;;11.13;7.47;;;;;;;;;;5106060;28;20031;-80
2021/08/22 11:34:14;;;;;;;9.93;7.55;;;;;;;;;;5097735;28;20020;-81
2021/08/22 11:36:40;;;;;;;10.20;6.95;;;;;;;;;;5099602;28;20110;-80
2021/08/22 11:39:10;;;;;;;9.48;6.50;;;;;;;;;;5092013;28;20028;-80
2021/08/22 11:41:37;;;;;;;12.35;7.15;;;;;;;;;;5098128;28;20027;-79
2021/08/22 11:44:02;;;;;;;8.57;6.90;;;;;;;;;;5084562;28;20032;-81
2021/08/22 11:46:28;;;;;;;8.52;6.75;;;;;;;;;;5095241;28;20020;-79
2021/08/22 11:48:55;;;;;;;10.45;7.47;;;;;;;;;;5099061;28;20027;-79
2021/08/22 11:51:20;;;;;;;10.65;7.30;;;;;;;;;;5068767;28;20412;-80
2021/08/22 11:53:47;;;;;;;7.95;6.72;;;;;;;;;;5063367;28;20031;-80
2021/08/22 11:56:20;;;;;;;10.27;7.63;;;;;;;;;;5064580;28;20025;-79
2021/08/22 11:58:46;;;;;;;11.77;7.60;;;;;;;;;;5078347;28;20370;-80
2021/08/22 12:01:16;;;;;;;9.07;7.70;;;;;;;;;;5078906;28;20108;-79
2021/08/22 12:03:55;;;;;;;10.82;6.65;;;;;;;;;;5088780;28;20024;-80
2021/08/22 12:06:21;;;;;;;7.65;6.70;;;;;;;;;;5090108;28;20062;-80
2021/08/22 12:08:47;;;;;;;9.25;5.75;;;;;;;;;;5080230;28;20028;-79
2021/08/22 12:11:15;;;;;;;6.13;4.50;;;;;;;;;;5081983;28;20107;-82
2021/08/22 12:13:43;;;;;;;6.50;4.20;;;;;;;;;;5062540;28;20146;-78
2021/08/22 12:16:30;;;;;;;5.38;4.20;;;;;;;;;;5078343;28;20028;-79
2021/08/22 12:19:18;;;;;;;5.13;4.05;;;;;;;;;;5063859;28;20021;-80
2021/08/22 12:21:43;;;;;;;7.63;4.85;;;;;;;;;;5071559;28;20024;-80
2021/08/22 12:24:28;;;;;;;7.60;4.22;;;;;;;;;;5102960;28;20024;-79
2021/08/22 12:26:59;;;;;;;6.53;4.20;;;;;;;;;;5098637;28;20111;-79
2021/08/22 12:29:32;;;;;;;7.75;4.57;;;;;;;;;;5103791;28;20030;-81
2021/08/22 12:32:13;;;;;;;6.10;3.38;;;;;;;;;;5080189;28;20020;-79
2021/08/22 12:34:38;;;;;;;4.40;2.95;;;;;;;;;;5098521;28;20028;-82
2021/08/22 12:37:14;;;;;;;4.03;2.58;;;;;;;;;;5100370;28;20050;-80
2021/08/22 12:39:41;;;;;;;2.72;2.53;;;;;;;;;;5088991;28;20384;-80
2021/08/22 12:42:06;;;;;;;4.82;3.20;;;;;;;;;;5101749;28;20020;-81
2021/08/22 12:44:34;;;;;;;4.20;3.03;;;;;;;;;;5096221;28;20060;-80
2021/08/22 12:47:04;;;;;;;4.85;3.60;;;;;;;;;;5079965;28;20028;-82
2021/08/22 12:49:31;;;;;;;7.28;3.67;;;;;;;;;;5080013;28;20024;-81
2021/08/22 12:52:00;;;;;;;5.88;3.90;;;;;;;;;;5085033;28;20056;-80
2021/08/22 12:54:28;;;;;;;7.40;4.25;;;;;;;;;;5061570;28;20111;-82
2021/08/22 12:56:55;;;;;;;5.03;4.30;;;;;;;;;;5060318;28;20037;-81
2021/08/22 12:59:20;;;;;;;7.10;3.60;;;;;;;;;;5061153;28;20017;-81
2021/08/22 13:01:47;;;;;;;5.72;4.20;;;;;;;;;;5071822;28;20437;-84
2021/08/22 13:04:14;;;;;;;6.07;4.05;;;;;;;;;;5093276;28;20039;-80
2021/08/22 13:06:39;;;;;;;5.85;4.10;;;;;;;;;;5080056;28;20031;-81
2021/08/22 13:09:05;;;;;;;5.95;3.50;;;;;;;;;;5087357;28;20027;-81
2021/08/22 13:11:30;;;;;;;5.63;3.20;;;;;;;;;;5092936;28;20024;-77
2021/08/22 13:13:55;;;;;;;5.88;2.80;;;;;;;;;;5078759;28;20124;-80
2021/08/22 13:16:25;;;;;;;5.10;3.00;;;;;;;;;;5089889;28;20027;-79
2021/08/22 13:18:51;;;;;;;6.85;3.08;;;;;;;;;;5100348;28;20050;-79
2021/08/22 13:21:17;;;;;;;3.42;2.72;;;;;;;;;;5088299;28;20028;-81
2021/08/22 13:23:43;;;;;;;5.85;3.35;;;;;;;;;;5078775;28;20089;-80
2021/08/22 13:26:10;;;;;;;5.25;3.40;;;;;;;;;;5086932;28;20091;-80
2021/08/22 13:28:37;;;;;;;3.83;2.80;;;;;;;;;;5099191;28;20043;-81
2021/08/22 13:31:02;;;;;;;6.63;2.63;;;;;;;;;;5099211;28;20024;-80
2021/08/22 13:33:28;;;;;;;5.00;3.40;;;;;;;;;;5100270;28;20039;-81
2021/08/22 13:35:53;;;;;;;5.43;3.25;;;;;;;;;;5098656;28;20051;-78
2021/08/22 13:38:19;;;;;;;4.70;3.15;;;;;;;;;;5085696;28;20036;-79
2021/08/22 13:40:45;;;;;;;5.57;2.92;;;;;;;;;;5087921;28;20028;-80
2021/08/22 13:43:11;;;;;;;5.40;2.75;;;;;;;;;;5098576;28;20022;-82
2021/08/22 13:45:36;;;;;;;5.40;2.75;;;;;;;;;;5097458;28;20028;-80
2021/08/22 13:48:02;;;;;;;3.90;2.85;;;;;;;;;;5082314;28;20030;-81
2021/08/22 13:50:29;;;;;;;5.57;2.90;;;;;;;;;;5100702;28;20020;-81
2021/08/22 13:52:55;;;;;;;3.72;2.80;;;;;;;;;;5095945;28;20025;-80
2021/08/22 13:55:20;;;;;;;3.78;2.80;;;;;;;;;;5097210;28;20054;-80
2021/08/22 13:57:46;;;;;;;4.82;2.80;;;;;;;;;;5099072;28;20028;-81
2021/08/22 14:00:11;;;;;;;3.85;2.90;;;;;;;;;;5101210;28;20027;-81
2021/08/22 14:02:37;;;;;;;4.30;2.70;;;;;;;;;;5090368;28;20535;-80
2021/08/22 14:05:03;;;;;;;3.95;3.05;;;;;;;;;;5099616;28;20053;-82
2021/08/22 14:07:28;;;;;;;3.78;3.28;;;;;;;;;;5097916;28;20031;-79
2021/08/22 14:09:54;;;;;;;3.45;2.80;;;;;;;;;;5097978;28;20028;-81
2021/08/22 14:12:19;;;;;;;5.47;2.72;;;;;;;;;;5091634;28;20028;-80
2021/08/22 14:14:44;;;;;;;4.00;2.97;;;;;;;;;;5081421;28;20040;-82
2021/08/22 14:17:10;;;;;;;5.05;3.03;;;;;;;;;;5083516;28;20024;-80
2021/08/22 14:19:35;;;;;;;3.92;2.85;;;;;;;;;;5088855;28;20358;-80
2021/08/22 14:22:03;;;;;;;4.70;3.15;;;;;;;;;;5079242;28;20052;-81
2021/08/22 14:24:28;;;;;;;6.78;3.63;;;;;;;;;;5080803;28;20059;-80
2021/08/22 14:26:53;;;;;;;4.47;3.33;;;;;;;;;;5081499;28;20472;-80
2021/08/22 14:29:19;;;;;;;5.22;3.78;;;;;;;;;;5084510;28;20024;-80
2021/08/22 14:31:44;;;;;;;6.75;4.13;;;;;;;;;;5099541;28;20166;-80
2021/08/22 14:34:09;;;;;;;5.68;3.90;;;;;;;;;;5100887;28;20024;-81
2021/08/22 14:36:36;;;;;;;5.75;4.72;;;;;;;;;;5103935;28;20074;-81